Time;durP1;ratioP1;P1;durP2;ratioP2;P2;SDS_P1;SDS_P2;PMS_P1;PMS_P2;Temp;Humidity;BMP_temperature;BMP_pressure;BME280_temperature;BME280_humidity;BME280_pressure;Samples;Min_cycle;Max_cycle;Signal;HPM_P1;HPM_P2
2021/10/22 00:00:49;;;;;;;3.75;3.55;;;;;;;;;;7328818;19;162420;-14
2021/10/22 00:03:21;;;;;;;3.40;3.20;;;;;;;;;;7330330;19;153908;-15
2021/10/22 00:05:52;;;;;;;3.47;3.27;;;;;;;;;;7329437;19;153600;-14
2021/10/22 00:08:24;;;;;;;3.55;3.35;;;;;;;;;;7331372;19;162534;-14
2021/10/22 00:10:56;;;;;;;2.97;2.77;;;;;;;;;;7331083;19;162344;-15
2021/10/22 00:13:30;;;;;;;2.90;2.70;;;;;;;;;;7329129;19;154233;-15
2021/10/22 00:16:04;;;;;;;3.17;2.97;;;;;;;;;;7331931;19;153420;-16
2021/10/22 00:18:35;;;;;;;2.10;2.00;;;;;;;;;;7328528;19;162053;-14
2021/10/22 00:21:07;;;;;;;2.53;2.33;;;;;;;;;;7331709;19;162610;-16
2021/10/22 00:23:39;;;;;;;2.50;2.40;;;;;;;;;;7330107;19;153977;-15
2021/10/22 00:26:11;;;;;;;2.35;2.25;;;;;;;;;;7327177;19;153533;-13
2021/10/22 00:28:45;;;;;;;2.50;2.40;;;;;;;;;;7326868;19;162148;-15
2021/10/22 00:31:17;;;;;;;2.10;2.00;;;;;;;;;;7326638;19;162343;-15
2021/10/22 00:33:48;;;;;;;2.30;2.20;;;;;;;;;;7325450;19;154204;-15
2021/10/22 00:36:20;;;;;;;2.50;2.40;;;;;;;;;;7327179;19;153536;-14
2021/10/22 00:38:52;;;;;;;2.53;2.38;;;;;;;;;;7326647;19;161823;-13
2021/10/22 00:41:23;;;;;;;2.42;2.33;;;;;;;;;;7326527;19;162706;-12
2021/10/22 00:43:58;;;;;;;2.42;2.30;;;;;;;;;;7327145;19;153969;-14
2021/10/22 00:46:32;;;;;;;2.20;2.10;;;;;;;;;;7333550;19;153672;-15
2021/10/22 00:49:03;;;;;;;2.20;2.10;;;;;;;;;;7333317;19;161811;-13
2021/10/22 00:51:34;;;;;;;2.15;2.05;;;;;;;;;;7333172;19;162299;-14
2021/10/22 00:54:07;;;;;;;2.15;2.05;;;;;;;;;;7331623;19;154026;-15
2021/10/22 00:56:38;;;;;;;2.05;1.95;;;;;;;;;;7333712;19;153675;-14
2021/10/22 00:59:12;;;;;;;2.17;2.08;;;;;;;;;;7334546;19;161941;-11
2021/10/22 01:01:43;;;;;;;2.58;2.38;;;;;;;;;;7333335;19;162434;-15
2021/10/22 01:04:15;;;;;;;2.22;2.13;;;;;;;;;;7332620;19;154028;-13
2021/10/22 08:17:14;;;;;;;0.30;0.30;;;;;;;;;;7368883;19;132550;-15
2021/10/22 08:19:50;;;;;;;0.40;0.40;;;;;;;;;;7364797;19;153676;-17
2021/10/22 08:22:31;;;;;;;0.40;0.40;;;;;;;;;;7364508;19;161786;-14
2021/10/22 08:25:04;;;;;;;0.30;0.30;;;;;;;;;;7363769;19;162277;-15
2021/10/22 08:27:37;;;;;;;0.38;0.38;;;;;;;;;;7364833;19;154050;-16
2021/10/22 08:30:13;;;;;;;0.40;0.40;;;;;;;;;;7363623;19;153704;-16
2021/10/22 08:32:50;;;;;;;0.70;0.40;;;;;;;;;;7363656;19;162182;-15
2021/10/22 08:35:22;;;;;;;0.50;0.50;;;;;;;;;;7367982;19;162534;-14
2021/10/22 08:37:54;;;;;;;0.52;0.52;;;;;;;;;;7368670;19;154038;-14
2021/10/22 08:40:26;;;;;;;1.17;0.50;;;;;;;;;;7364450;19;153744;-15
2021/10/22 08:42:58;;;;;;;0.50;0.50;;;;;;;;;;7365764;19;161934;-17
2021/10/22 08:45:30;;;;;;;0.43;0.43;;;;;;;;;;7365079;19;162538;-15
2021/10/22 08:48:04;;;;;;;0.95;0.40;;;;;;;;;;7367608;19;154308;-15
2021/10/22 08:50:35;;;;;;;0.65;0.40;;;;;;;;;;7364956;19;153537;-16
2021/10/22 08:53:07;;;;;;;0.60;0.60;;;;;;;;;;7366371;19;162061;-15
2021/10/22 08:55:38;;;;;;;0.40;0.40;;;;;;;;;;7362145;19;162680;-15
2021/10/22 08:58:11;;;;;;;0.30;0.30;;;;;;;;;;7367074;19;154012;-16
2021/10/22 09:00:42;;;;;;;0.98;0.40;;;;;;;;;;7360679;19;153552;-15
2021/10/22 09:03:18;;;;;;;0.40;0.40;;;;;;;;;;7359179;19;164180;-13
2021/10/22 09:06:00;;;;;;;0.50;0.50;;;;;;;;;;7359912;19;162333;-15
2021/10/22 09:08:33;;;;;;;0.60;0.60;;;;;;;;;;7359654;19;154158;-13
2021/10/22 09:11:05;;;;;;;;;;;;;;;;;;7362641;19;153537;-14
2021/10/22 09:13:37;;;;;;;0.32;0.32;;;;;;;;;;7363156;19;162137;-14
2021/10/22 09:16:22;;;;;;;0.50;0.50;;;;;;;;;;7357184;19;162530;-13
2021/10/22 09:18:58;;;;;;;0.50;0.35;;;;;;;;;;7333795;19;153932;-16
2021/10/22 09:21:31;;;;;;;0.40;0.40;;;;;;;;;;7334772;19;153522;-14
2021/10/22 09:24:17;;;;;;;0.55;0.45;;;;;;;;;;7334020;19;162037;-15
2021/10/22 09:26:53;;;;;;;0.43;0.40;;;;;;;;;;7332498;19;162384;-15
2021/10/22 09:29:28;;;;;;;0.30;0.30;;;;;;;;;;7334608;19;154166;-14
2021/10/22 09:32:01;;;;;;;0.40;0.40;;;;;;;;;;7334771;19;153555;-15
2021/10/22 09:34:37;;;;;;;0.47;0.47;;;;;;;;;;7334348;19;161958;-14
2021/10/22 09:37:13;;;;;;;0.50;0.45;;;;;;;;;;7334230;19;162613;-14
2021/10/22 09:39:45;;;;;;;0.25;0.25;;;;;;;;;;7333135;19;154223;-16
2021/10/22 09:42:19;;;;;;;0.85;0.43;;;;;;;;;;7334323;19;153825;-13
2021/10/22 09:44:50;;;;;;;0.90;0.45;;;;;;;;;;7334704;19;161837;-16
2021/10/22 09:47:23;;;;;;;0.50;0.50;;;;;;;;;;7333559;19;162450;-14
2021/10/22 09:50:09;;;;;;;0.30;0.30;;;;;;;;;;7337299;19;154163;-14
2021/10/22 09:52:40;;;;;;;0.40;0.40;;;;;;;;;;7333740;19;153503;-15
2021/10/22 09:55:14;;;;;;;0.38;0.32;;;;;;;;;;7332805;19;161928;-17
2021/10/22 09:57:48;;;;;;;0.43;0.43;;;;;;;;;;7331193;19;162428;-14
2021/10/22 10:00:25;;;;;;;0.40;0.40;;;;;;;;;;7332508;19;154046;-13
2021/10/22 10:02:56;;;;;;;0.50;0.50;;;;;;;;;;7330674;19;154060;-14
2021/10/22 10:05:31;;;;;;;0.40;0.40;;;;;;;;;;7329681;19;161855;-15
2021/10/22 10:08:03;;;;;;;0.63;0.52;;;;;;;;;;7331892;19;162345;-14
2021/10/22 10:10:35;;;;;;;0.50;0.50;;;;;;;;;;7334964;19;153957;-16
2021/10/22 10:13:06;;;;;;;0.50;0.50;;;;;;;;;;7332724;19;153831;-14
2021/10/22 10:15:38;;;;;;;0.38;0.38;;;;;;;;;;7332218;19;161932;-14
2021/10/22 10:18:16;;;;;;;0.40;0.40;;;;;;;;;;7329959;19;162967;-14
2021/10/22 10:20:52;;;;;;;1.63;0.50;;;;;;;;;;7331945;19;153995;-14
2021/10/22 10:23:24;;;;;;;0.32;0.32;;;;;;;;;;7331380;19;153565;-15
2021/10/22 10:25:55;;;;;;;0.40;0.40;;;;;;;;;;7334997;19;162073;-15
2021/10/22 10:28:42;;;;;;;0.40;0.40;;;;;;;;;;7328888;19;162458;-15
2021/10/22 10:31:33;;;;;;;0.40;0.40;;;;;;;;;;7334406;19;154217;-19
2021/10/22 10:34:42;;;;;;;0.52;0.52;;;;;;;;;;7332151;19;153896;-18
2021/10/22 10:37:41;;;;;;;1.27;0.60;;;;;;;;;;7331721;19;161763;-14
2021/10/22 10:40:15;;;;;;;0.65;0.65;;;;;;;;;;7330392;19;162602;-15
2021/10/22 10:42:49;;;;;;;1.35;0.95;;;;;;;;;;7331688;19;153990;-13
2021/10/22 10:45:45;;;;;;;1.25;1.23;;;;;;;;;;7331707;19;153541;-15
2021/10/22 10:48:21;;;;;;;1.92;1.80;;;;;;;;;;7328381;19;162026;-14
2021/10/22 10:50:55;;;;;;;2.78;2.45;;;;;;;;;;7331165;19;162589;-14
2021/10/22 10:53:38;;;;;;;2.63;2.08;;;;;;;;;;7331463;19;154418;-14
2021/10/22 10:56:22;;;;;;;1.60;1.50;;;;;;;;;;7328385;19;153546;-14
2021/10/22 10:58:54;;;;;;;1.58;1.48;;;;;;;;;;7335023;19;161941;-14
2021/10/22 11:01:27;;;;;;;1.52;1.35;;;;;;;;;;7332491;19;162760;-13
2021/10/22 11:04:00;;;;;;;1.50;1.40;;;;;;;;;;7334233;19;154123;-15
2021/10/22 11:06:40;;;;;;;;;;;;;;;;;;7335617;19;153543;-15
2021/10/22 11:09:18;;;;;;;1.42;1.00;;;;;;;;;;7332155;19;162093;-16
2021/10/22 11:12:01;;;;;;;1.63;1.00;;;;;;;;;;7334660;19;162348;-14
2021/10/22 11:14:44;;;;;;;1.13;1.13;;;;;;;;;;7332589;19;154140;-13
2021/10/22 11:17:15;;;;;;;;;;;;;;;;;;7330554;19;153559;-14
2021/10/22 11:19:47;;;;;;;1.08;1.08;;;;;;;;;;7333118;19;162075;-14
2021/10/22 11:22:23;;;;;;;1.20;1.20;;;;;;;;;;7333088;19;162318;-18
2021/10/22 11:24:56;;;;;;;1.25;1.25;;;;;;;;;;7332935;19;153933;-14
2021/10/22 11:27:28;;;;;;;1.30;1.30;;;;;;;;;;7332709;19;153482;-15
2021/10/22 11:30:03;;;;;;;1.23;1.20;;;;;;;;;;7333573;19;161823;-15
2021/10/22 11:32:39;;;;;;;1.20;1.20;;;;;;;;;;7329689;19;162434;-13
2021/10/22 11:35:11;;;;;;;0.90;0.90;;;;;;;;;;7333088;19;154372;-15
2021/10/22 11:37:44;;;;;;;0.80;0.80;;;;;;;;;;7333696;19;153657;-13
2021/10/22 11:40:20;;;;;;;0.70;0.70;;;;;;;;;;7331600;19;161986;-15
2021/10/22 11:42:51;;;;;;;0.52;0.52;;;;;;;;;;7332609;19;162477;-15
2021/10/22 11:45:23;;;;;;;0.70;0.70;;;;;;;;;;7334838;19;154188;-13
2021/10/22 11:47:56;;;;;;;0.60;0.60;;;;;;;;;;7331768;19;153511;-14
2021/10/22 11:50:31;;;;;;;0.50;0.50;;;;;;;;;;7332238;19;161815;-13
2021/10/22 11:53:06;;;;;;;0.68;0.60;;;;;;;;;;7330521;19;162463;-14
2021/10/22 11:55:41;;;;;;;0.80;0.50;;;;;;;;;;7331035;19;153967;-16
2021/10/22 11:58:15;;;;;;;0.50;0.50;;;;;;;;;;7332524;19;153497;-12
2021/10/22 12:00:50;;;;;;;0.43;0.43;;;;;;;;;;7331527;19;162157;-13
2021/10/22 12:03:28;;;;;;;0.63;0.40;;;;;;;;;;7327930;19;162563;-16
2021/10/22 12:06:01;;;;;;;0.50;0.50;;;;;;;;;;7329941;19;153914;-14
2021/10/22 12:08:33;;;;;;;0.40;0.40;;;;;;;;;;7328091;19;153661;-14
2021/10/22 12:11:07;;;;;;;0.60;0.50;;;;;;;;;;7329960;19;161950;-13
2021/10/22 12:13:43;;;;;;;0.85;0.50;;;;;;;;;;7330000;19;162563;-15
2021/10/22 12:16:14;;;;;;;0.57;0.50;;;;;;;;;;7325857;19;153933;-15
2021/10/22 12:18:46;;;;;;;0.63;0.50;;;;;;;;;;7233889;19;153528;-13
2021/10/22 12:21:17;;;;;;;0.97;0.60;;;;;;;;;;7229907;19;161805;-12
2021/10/22 12:23:57;;;;;;;0.50;0.50;;;;;;;;;;7331833;19;162500;-15
2021/10/22 12:26:33;;;;;;;1.92;0.70;;;;;;;;;;7331725;19;154205;-14
2021/10/22 12:29:06;;;;;;;0.60;0.60;;;;;;;;;;7329582;19;153908;-13
2021/10/22 12:31:40;;;;;;;11.32;8.68;;;;;;;;;;7328773;19;161817;-16
2021/10/22 12:34:12;;;;;;;40.97;33.08;;;;;;;;;;7328552;19;162290;-13
2021/10/22 12:36:45;;;;;;;29.88;25.38;;;;;;;;;;7328899;19;154043;-15
2021/10/22 12:39:23;;;;;;;41.95;35.83;;;;;;;;;;7331493;19;154121;-14
2021/10/22 12:41:57;;;;;;;24.55;21.95;;;;;;;;;;7331114;19;162107;-13
2021/10/22 12:44:33;;;;;;;21.83;19.33;;;;;;;;;;7330959;19;162726;-15
2021/10/22 12:47:05;;;;;;;14.98;13.40;;;;;;;;;;7331961;19;153942;-16
2021/10/22 12:49:36;;;;;;;33.47;27.42;;;;;;;;;;7325971;19;153678;-17
2021/10/22 12:52:08;;;;;;;43.05;36.17;;;;;;;;;;7330412;19;161939;-15
2021/10/22 12:54:47;;;;;;;40.55;35.20;;;;;;;;;;7334891;19;162516;-16
2021/10/22 12:57:27;;;;;;;39.90;35.70;;;;;;;;;;7335179;19;154041;-15
2021/10/22 13:00:26;;;;;;;34.15;30.45;;;;;;;;;;7333674;19;154013;-16
2021/10/22 13:03:06;;;;;;;16.40;14.15;;;;;;;;;;7338570;19;162117;-15
2021/10/22 13:05:40;;;;;;;21.42;19.23;;;;;;;;;;7333396;19;162598;-15
2021/10/22 13:08:24;;;;;;;20.95;18.73;;;;;;;;;;7334196;19;154096;-16
2021/10/22 13:11:01;;;;;;;21.65;19.45;;;;;;;;;;7334571;19;153752;-16
2021/10/22 13:21:47;;;;;;;26.52;23.67;;;;;;;;;;7338539;19;153730;-15
2021/10/22 13:24:19;;;;;;;25.13;22.65;;;;;;;;;;7334032;19;162036;-13
2021/10/22 13:26:50;;;;;;;25.35;22.92;;;;;;;;;;7335757;19;162452;-15
2021/10/22 13:29:24;;;;;;;25.08;22.48;;;;;;;;;;7332157;19;153973;-14
2021/10/22 13:31:56;;;;;;;25.80;23.02;;;;;;;;;;7328840;19;153671;-15
2021/10/22 13:34:27;;;;;;;11.00;10.00;;;;;;;;;;7333707;19;162502;-14
2021/10/22 13:36:59;;;;;;;13.48;12.10;;;;;;;;;;7333152;19;162590;-13
2021/10/22 13:39:30;;;;;;;11.75;9.85;;;;;;;;;;7334424;19;153961;-14
2021/10/22 13:42:02;;;;;;;8.95;8.10;;;;;;;;;;7329749;19;153709;-13
2021/10/22 13:44:37;;;;;;;8.10;6.82;;;;;;;;;;7333986;19;161876;-15
2021/10/22 13:47:09;;;;;;;10.18;9.18;;;;;;;;;;7333845;19;162436;-15
2021/10/22 13:49:41;;;;;;;9.38;8.48;;;;;;;;;;7336302;19;154350;-15
2021/10/22 13:52:12;;;;;;;7.65;7.05;;;;;;;;;;7334135;19;153490;-16
2021/10/22 13:54:43;;;;;;;6.80;6.20;;;;;;;;;;7333715;19;161783;-15
2021/10/22 13:57:15;;;;;;;5.90;5.40;;;;;;;;;;7333658;19;162353;-15
2021/10/22 13:59:48;;;;;;;5.70;5.20;;;;;;;;;;7336282;19;154030;-14
2021/10/22 14:02:20;;;;;;;4.60;4.15;;;;;;;;;;7336816;19;153584;-16
2021/10/22 14:04:51;;;;;;;4.68;4.28;;;;;;;;;;7336680;19;161846;-14
2021/10/22 14:07:22;;;;;;;3.72;3.42;;;;;;;;;;7336802;19;162627;-14
2021/10/22 14:09:54;;;;;;;3.35;3.05;;;;;;;;;;7331877;19;153954;-14
2021/10/22 14:12:27;;;;;;;2.70;2.50;;;;;;;;;;7333460;19;153664;-15
2021/10/22 14:15:11;;;;;;;2.40;2.20;;;;;;;;;;7331668;19;161973;-17
2021/10/22 14:17:57;;;;;;;2.38;2.20;;;;;;;;;;7332879;19;162733;-16
2021/10/22 14:23:47;;;;;;;1.92;1.83;;;;;;;;;;7332216;19;154039;-17
2021/10/22 14:29:09;;;;;;;1.45;1.40;;;;;;;;;;7335136;19;162420;-16
2021/10/22 14:31:43;;;;;;;1.40;1.20;;;;;;;;;;7334992;19;154263;-13
2021/10/22 14:34:15;;;;;;;1.08;1.08;;;;;;;;;;7335216;19;153870;-15
2021/10/22 14:36:46;;;;;;;1.20;1.10;;;;;;;;;;7334953;19;162090;-15
2021/10/22 14:39:23;;;;;;;1.00;1.00;;;;;;;;;;7334363;19;162772;-16
2021/10/22 14:41:55;;;;;;;0.85;0.85;;;;;;;;;;7335079;19;154035;-15
2021/10/22 14:44:30;;;;;;;0.90;0.90;;;;;;;;;;7335120;19;153273;-11
2021/10/22 14:47:12;;;;;;;0.82;0.82;;;;;;;;;;7334530;19;161649;-13
2021/10/22 14:49:46;;;;;;;0.60;0.60;;;;;;;;;;7333758;19;162523;-13
2021/10/22 14:52:36;;;;;;;0.70;0.70;;;;;;;;;;7335175;19;154124;-15
2021/10/22 14:55:23;;;;;;;0.70;0.70;;;;;;;;;;7335552;19;153689;-14
2021/10/22 14:57:57;;;;;;;0.55;0.55;;;;;;;;;;7333556;19;161880;-14
2021/10/22 15:00:31;;;;;;;0.70;0.70;;;;;;;;;;7334543;19;162675;-15
2021/10/22 15:03:08;;;;;;;;;;;;;;;;;;7335086;19;154001;-16
2021/10/22 15:05:41;;;;;;;0.60;0.60;;;;;;;;;;7333598;19;153359;-14
2021/10/22 15:08:14;;;;;;;0.63;0.63;;;;;;;;;;7333676;19;163769;-15
2021/10/22 15:10:46;;;;;;;0.50;0.50;;;;;;;;;;7332504;19;162446;-16
2021/10/22 15:13:18;;;;;;;0.52;0.40;;;;;;;;;;7334455;19;154046;-17
2021/10/22 15:15:50;;;;;;;0.70;0.70;;;;;;;;;;7331942;19;153713;-17
2021/10/22 15:18:23;;;;;;;0.50;0.50;;;;;;;;;;7334376;19;162021;-17
2021/10/22 15:20:55;;;;;;;0.45;0.45;;;;;;;;;;7334345;19;162360;-18
2021/10/22 15:23:26;;;;;;;0.40;0.40;;;;;;;;;;7334475;19;154001;-15
2021/10/22 15:25:58;;;;;;;0.38;0.38;;;;;;;;;;7334011;19;153507;-16
2021/10/22 15:28:30;;;;;;;0.30;0.30;;;;;;;;;;7334233;19;162114;-16
2021/10/22 15:31:01;;;;;;;0.50;0.50;;;;;;;;;;7331750;19;162501;-14
2021/10/22 15:33:35;;;;;;;0.30;0.30;;;;;;;;;;7333709;19;153968;-14
2021/10/22 15:36:08;;;;;;;0.52;0.52;;;;;;;;;;7333256;19;153660;-15
2021/10/22 15:38:40;;;;;;;0.40;0.40;;;;;;;;;;7334453;19;162002;-15
2021/10/22 15:41:11;;;;;;;0.40;0.40;;;;;;;;;;7333379;19;162510;-14
2021/10/22 15:43:43;;;;;;;0.77;0.60;;;;;;;;;;7333905;19;154148;-16
2021/10/22 15:46:16;;;;;;;0.30;0.30;;;;;;;;;;7334577;19;153775;-16
2021/10/22 15:48:51;;;;;;;0.30;0.30;;;;;;;;;;7330472;19;161967;-15
2021/10/22 15:51:23;;;;;;;0.70;0.60;;;;;;;;;;7327981;19;162679;-15
2021/10/22 15:53:54;;;;;;;0.40;0.40;;;;;;;;;;7330725;19;154050;-14
2021/10/22 15:56:25;;;;;;;0.40;0.40;;;;;;;;;;7330476;19;154156;-16
2021/10/22 15:58:56;;;;;;;0.45;0.38;;;;;;;;;;7330185;19;161925;-17
2021/10/22 16:01:29;;;;;;;0.40;0.40;;;;;;;;;;7330078;19;162437;-17
2021/10/22 16:04:03;;;;;;;0.47;0.35;;;;;;;;;;7329392;19;154086;-15
2021/10/22 16:06:36;;;;;;;0.30;0.30;;;;;;;;;;7330241;19;153603;-16
2021/10/22 16:09:11;;;;;;;0.30;0.30;;;;;;;;;;7329696;19;161876;-15
2021/10/22 16:11:48;;;;;;;0.60;0.40;;;;;;;;;;7327458;19;162493;-15
2021/10/22 16:14:41;;;;;;;0.30;0.30;;;;;;;;;;7330007;19;153980;-14
2021/10/22 16:17:12;;;;;;;0.40;0.40;;;;;;;;;;7327904;19;153537;-17
2021/10/22 16:19:47;;;;;;;;;;;;;;;;;;7334220;19;161951;-17
2021/10/22 16:22:18;;;;;;;0.55;0.40;;;;;;;;;;7329454;19;162828;-16
2021/10/22 16:24:50;;;;;;;0.38;0.30;;;;;;;;;;7329697;19;154046;-16
2021/10/22 16:27:21;;;;;;;0.52;0.43;;;;;;;;;;7332651;19;153662;-14
2021/10/22 16:29:52;;;;;;;0.45;0.30;;;;;;;;;;7334848;19;161878;-15
2021/10/22 16:32:26;;;;;;;0.20;0.20;;;;;;;;;;7333589;19;162510;-16
2021/10/22 16:37:44;;;;;;;0.35;0.35;;;;;;;;;;7335887;19;153522;-11
2021/10/22 16:40:16;;;;;;;0.40;0.40;;;;;;;;;;7335458;19;161869;-17
2021/10/22 16:42:47;;;;;;;0.30;0.30;;;;;;;;;;7335446;19;162681;-17
2021/10/22 16:45:19;;;;;;;0.30;0.30;;;;;;;;;;7334808;19;154296;-16
2021/10/22 16:47:51;;;;;;;0.30;0.30;;;;;;;;;;7335882;19;153777;-14
2021/10/22 16:50:25;;;;;;;0.40;0.40;;;;;;;;;;7334930;19;162057;-17
2021/10/22 16:52:57;;;;;;;0.40;0.40;;;;;;;;;;7333799;19;162419;-16
2021/10/22 16:55:29;;;;;;;0.30;0.30;;;;;;;;;;7335258;19;154156;-16
2021/10/22 16:58:00;;;;;;;0.38;0.38;;;;;;;;;;7337016;19;153724;-17
2021/10/22 17:00:31;;;;;;;0.57;0.38;;;;;;;;;;7333687;19;162085;-14
2021/10/22 17:03:05;;;;;;;0.30;0.30;;;;;;;;;;7335006;19;162396;-16
2021/10/22 17:05:39;;;;;;;0.30;0.30;;;;;;;;;;7335389;19;153987;-15
2021/10/22 17:08:10;;;;;;;0.30;0.30;;;;;;;;;;7335029;19;153521;-15
2021/10/22 17:10:41;;;;;;;0.57;0.40;;;;;;;;;;7334388;19;161774;-15
2021/10/22 17:13:13;;;;;;;0.40;0.40;;;;;;;;;;7334527;19;162625;-17
2021/10/22 17:15:45;;;;;;;0.20;0.20;;;;;;;;;;7333523;19;154061;-14
2021/10/22 17:18:16;;;;;;;0.30;0.30;;;;;;;;;;7333385;19;153550;-13
2021/10/22 17:20:50;;;;;;;0.60;0.60;;;;;;;;;;7333990;19;161984;-14
2021/10/22 17:23:26;;;;;;;0.50;0.40;;;;;;;;;;7333846;19;162502;-13
2021/10/22 17:25:57;;;;;;;0.40;0.40;;;;;;;;;;7334369;19;153879;-13
2021/10/22 17:28:30;;;;;;;0.38;0.38;;;;;;;;;;7334297;19;153718;-13
2021/10/22 17:31:01;;;;;;;0.40;0.40;;;;;;;;;;7333414;19;162207;-14
2021/10/22 17:33:32;;;;;;;0.30;0.30;;;;;;;;;;7332307;19;162499;-14
2021/10/22 17:36:07;;;;;;;1.02;0.50;;;;;;;;;;7334163;19;153961;-14
2021/10/22 17:38:38;;;;;;;0.30;0.30;;;;;;;;;;7333227;19;153637;-15
2021/10/22 17:41:09;;;;;;;0.30;0.30;;;;;;;;;;7333941;19;161928;-13
2021/10/22 17:43:41;;;;;;;0.40;0.40;;;;;;;;;;7332686;19;162453;-15
2021/10/22 17:46:12;;;;;;;0.30;0.30;;;;;;;;;;7334031;19;153957;-14
2021/10/22 17:48:44;;;;;;;0.43;0.43;;;;;;;;;;7333921;19;153594;-14
2021/10/22 17:51:17;;;;;;;0.28;0.28;;;;;;;;;;7333299;19;161990;-14
2021/10/22 17:53:50;;;;;;;0.38;0.38;;;;;;;;;;7333379;19;162517;-14
2021/10/22 17:56:22;;;;;;;0.40;0.40;;;;;;;;;;7333886;19;154269;-15
2021/10/22 17:58:53;;;;;;;0.30;0.30;;;;;;;;;;7333306;19;153471;-15
2021/10/22 18:01:24;;;;;;;0.20;0.20;;;;;;;;;;7332820;19;161995;-16
2021/10/22 18:03:57;;;;;;;0.30;0.30;;;;;;;;;;7333477;19;162389;-16
2021/10/22 18:06:31;;;;;;;0.50;0.50;;;;;;;;;;7331953;19;154013;-13
2021/10/22 18:09:03;;;;;;;0.35;0.32;;;;;;;;;;7333050;19;153573;-16
2021/10/22 18:11:35;;;;;;;0.20;0.20;;;;;;;;;;7332266;19;161907;-15
2021/10/22 18:14:07;;;;;;;;;;;;;;;;;;7331801;19;162421;-15
2021/10/22 18:16:38;;;;;;;0.25;0.25;;;;;;;;;;7330006;19;154197;-14
2021/10/22 18:19:09;;;;;;;0.28;0.28;;;;;;;;;;7332785;19;153549;-13
2021/10/22 18:21:44;;;;;;;0.32;0.32;;;;;;;;;;7332284;19;161824;-16
2021/10/22 18:24:15;;;;;;;0.30;0.30;;;;;;;;;;7332212;19;162349;-15
2021/10/22 18:26:47;;;;;;;0.30;0.30;;;;;;;;;;7332728;19;154007;-16
2021/10/22 18:29:22;;;;;;;0.40;0.40;;;;;;;;;;7332557;19;153516;-15
2021/10/22 18:31:54;;;;;;;0.20;0.20;;;;;;;;;;7331179;19;162178;-16
2021/10/22 18:34:28;;;;;;;0.32;0.32;;;;;;;;;;7331940;19;162328;-14
2021/10/22 18:37:03;;;;;;;0.40;0.40;;;;;;;;;;7332345;19;154069;-16
2021/10/22 18:39:34;;;;;;;0.30;0.30;;;;;;;;;;7335656;19;153559;-13
2021/10/22 18:42:06;;;;;;;0.20;0.20;;;;;;;;;;7331942;19;161856;-13
2021/10/22 18:44:37;;;;;;;0.30;0.30;;;;;;;;;;7331895;19;162753;-12
2021/10/22 18:47:09;;;;;;;0.43;0.40;;;;;;;;;;7332282;19;153977;-12
2021/10/22 18:49:54;;;;;;;0.20;0.20;;;;;;;;;;7329419;19;154325;-14
2021/10/22 18:52:29;;;;;;;0.20;0.20;;;;;;;;;;7330555;19;161848;-13
2021/10/22 18:55:01;;;;;;;0.38;0.38;;;;;;;;;;7331760;19;162355;-17
2021/10/22 18:57:32;;;;;;;0.30;0.30;;;;;;;;;;7330612;19;154372;-15
2021/10/22 19:00:03;;;;;;;0.20;0.20;;;;;;;;;;7330458;19;153624;-15
2021/10/22 19:02:35;;;;;;;0.30;0.30;;;;;;;;;;7331281;19;161859;-13
2021/10/22 19:05:12;;;;;;;0.20;0.20;;;;;;;;;;7331227;19;162593;-13
2021/10/22 19:07:46;;;;;;;0.25;0.25;;;;;;;;;;7331867;19;154214;-14
2021/10/22 19:10:17;;;;;;;0.30;0.30;;;;;;;;;;7331470;19;153537;-15
2021/10/22 19:12:52;;;;;;;0.30;0.30;;;;;;;;;;7329745;19;161812;-14
2021/10/22 19:15:26;;;;;;;0.20;0.20;;;;;;;;;;7330189;19;162484;-15
2021/10/22 19:17:59;;;;;;;0.30;0.30;;;;;;;;;;7331419;19;154064;-15
2021/10/22 19:20:31;;;;;;;0.20;0.20;;;;;;;;;;7331147;19;153505;-12
2021/10/22 19:23:05;;;;;;;0.20;0.20;;;;;;;;;;7330846;19;161792;-12
2021/10/22 19:25:36;;;;;;;0.20;0.20;;;;;;;;;;7329503;19;162611;-12
2021/10/22 19:28:08;;;;;;;0.30;0.30;;;;;;;;;;7330943;19;153960;-12
2021/10/22 19:30:40;;;;;;;0.30;0.30;;;;;;;;;;7330797;19;153760;-16
2021/10/22 19:33:17;;;;;;;;;;;;;;;;;;7329577;19;162122;-28
2021/10/22 19:35:49;;;;;;;0.30;0.30;;;;;;;;;;7330393;19;162765;-15
2021/10/22 19:38:23;;;;;;;0.30;0.30;;;;;;;;;;7329501;19;154008;-14
2021/10/22 19:40:56;;;;;;;0.20;0.20;;;;;;;;;;7330568;19;153809;-16
2021/10/22 19:43:27;;;;;;;0.20;0.20;;;;;;;;;;7330206;19;161877;-15
2021/10/22 19:45:59;;;;;;;0.28;0.28;;;;;;;;;;7329874;19;162449;-15
2021/10/22 19:48:35;;;;;;;0.20;0.20;;;;;;;;;;7330284;19;154412;-13
2021/10/22 19:51:08;;;;;;;0.22;0.22;;;;;;;;;;7332623;19;153539;-13
2021/10/22 19:53:43;;;;;;;0.20;0.20;;;;;;;;;;7328385;19;161768;-13
2021/10/22 19:56:20;;;;;;;0.35;0.35;;;;;;;;;;7329709;19;162488;-13
2021/10/22 19:58:54;;;;;;;0.30;0.30;;;;;;;;;;7333132;19;153957;-14
2021/10/22 20:01:27;;;;;;;0.28;0.28;;;;;;;;;;7328184;19;153777;-15
2021/10/22 20:03:58;;;;;;;0.98;0.30;;;;;;;;;;7329657;19;162124;-15
2021/10/22 20:06:30;;;;;;;0.75;0.35;;;;;;;;;;7329554;19;162503;-14
2021/10/22 20:09:04;;;;;;;0.40;0.30;;;;;;;;;;7333894;19;153972;-14
2021/10/22 20:11:36;;;;;;;0.30;0.30;;;;;;;;;;7331338;19;153630;-16
2021/10/22 20:14:07;;;;;;;0.20;0.20;;;;;;;;;;7327457;19;162058;-12
2021/10/22 20:16:38;;;;;;;0.30;0.30;;;;;;;;;;7325631;19;162453;-15
2021/10/22 20:19:10;;;;;;;0.30;0.30;;;;;;;;;;7329690;19;153985;-14
2021/10/22 20:21:41;;;;;;;0.30;0.30;;;;;;;;;;7329377;19;153564;-14
2021/10/22 20:24:15;;;;;;;0.32;0.30;;;;;;;;;;7331464;19;161971;-16
2021/10/22 20:26:47;;;;;;;0.40;0.40;;;;;;;;;;7331922;19;162442;-14
2021/10/22 20:29:18;;;;;;;0.20;0.20;;;;;;;;;;7331794;19;154046;-13
2021/10/22 20:31:51;;;;;;;0.22;0.22;;;;;;;;;;7329536;19;153515;-13
2021/10/22 20:34:23;;;;;;;0.60;0.30;;;;;;;;;;7329925;19;161846;-13
2021/10/22 20:36:54;;;;;;;0.30;0.30;;;;;;;;;;7328399;19;162551;-13
2021/10/22 20:39:29;;;;;;;0.30;0.30;;;;;;;;;;7332885;19;154065;-14
2021/10/22 20:42:01;;;;;;;1.05;0.47;;;;;;;;;;7328479;19;153607;-15
2021/10/22 20:44:32;;;;;;;0.25;0.25;;;;;;;;;;7328350;19;161926;-14
2021/10/22 20:47:08;;;;;;;0.38;0.38;;;;;;;;;;7329043;19;162677;-15
2021/10/22 20:49:56;;;;;;;1.38;0.35;;;;;;;;;;7328593;19;153958;-12
2021/10/22 20:58:07;;;;;;;0.10;0.10;;;;;;;;;;7326673;19;162487;-13
2021/10/22 21:00:38;;;;;;;3.30;0.52;;;;;;;;;;7327867;19;154159;-12
2021/10/22 21:03:11;;;;;;;0.65;0.40;;;;;;;;;;7329910;19;153391;-13
2021/10/22 21:05:42;;;;;;;0.20;0.20;;;;;;;;;;7328205;19;161813;-14
2021/10/22 21:08:15;;;;;;;0.40;0.40;;;;;;;;;;7329493;19;162586;-14
2021/10/22 21:10:49;;;;;;;0.43;0.40;;;;;;;;;;7327559;19;154094;-16
2021/10/22 21:13:20;;;;;;;0.40;0.40;;;;;;;;;;7332941;19;153578;-15
2021/10/22 21:15:52;;;;;;;0.30;0.30;;;;;;;;;;7335708;19;161877;-12
2021/10/22 21:18:24;;;;;;;0.30;0.30;;;;;;;;;;7338724;19;162324;-14
2021/10/22 21:20:56;;;;;;;0.40;0.35;;;;;;;;;;7334834;19;153985;-16
2021/10/22 21:23:27;;;;;;;0.50;0.40;;;;;;;;;;7334398;19;153633;-16
2021/10/22 21:26:02;;;;;;;0.30;0.28;;;;;;;;;;7333877;19;162554;-16
2021/10/22 21:28:34;;;;;;;0.30;0.30;;;;;;;;;;7336029;19;162699;-12
2021/10/22 21:31:07;;;;;;;1.00;0.30;;;;;;;;;;7334401;19;154295;-13
2021/10/22 21:33:39;;;;;;;0.40;0.40;;;;;;;;;;7333918;19;153339;-15
2021/10/22 21:36:10;;;;;;;1.48;0.30;;;;;;;;;;7333459;19;161965;-15
2021/10/22 21:38:41;;;;;;;0.30;0.30;;;;;;;;;;7333205;19;162515;-14
2021/10/22 21:41:17;;;;;;;0.20;0.20;;;;;;;;;;7338082;19;153955;-14
2021/10/22 21:43:49;;;;;;;0.22;0.22;;;;;;;;;;7334073;19;153519;-15
2021/10/22 21:46:20;;;;;;;0.20;0.20;;;;;;;;;;7333171;19;161876;-14
2021/10/22 21:48:52;;;;;;;0.63;0.40;;;;;;;;;;7336850;19;162448;-16
2021/10/22 21:51:24;;;;;;;0.30;0.30;;;;;;;;;;7333424;19;153954;-16
2021/10/22 21:53:56;;;;;;;0.75;0.30;;;;;;;;;;7333602;19;153547;-15
2021/10/22 21:56:31;;;;;;;0.77;0.40;;;;;;;;;;7336882;19;161777;-13
2021/10/22 21:59:02;;;;;;;0.20;0.20;;;;;;;;;;7334661;19;162537;-15
2021/10/22 22:01:34;;;;;;;0.40;0.40;;;;;;;;;;7336767;19;154148;-14
2021/10/22 22:04:06;;;;;;;1.48;0.63;;;;;;;;;;7332696;19;153542;-14
2021/10/22 22:06:37;;;;;;;1.10;0.30;;;;;;;;;;7336509;19;161949;-16
2021/10/22 22:09:08;;;;;;;0.30;0.30;;;;;;;;;;7332378;19;162543;-14
2021/10/22 22:11:43;;;;;;;1.17;0.40;;;;;;;;;;7332508;19;153975;-16
2021/10/22 22:14:14;;;;;;;0.40;0.40;;;;;;;;;;7333395;19;153601;-15
2021/10/22 22:16:46;;;;;;;0.43;0.40;;;;;;;;;;7334731;19;162065;-14
2021/10/22 22:19:17;;;;;;;0.30;0.30;;;;;;;;;;7334190;19;162606;-16
2021/10/22 22:21:49;;;;;;;1.00;0.20;;;;;;;;;;7335596;19;154117;-13
2021/10/22 22:24:21;;;;;;;0.40;0.40;;;;;;;;;;7334720;19;153669;-16
2021/10/22 22:26:56;;;;;;;0.30;0.30;;;;;;;;;;7333988;19;161853;-14
2021/10/22 22:29:27;;;;;;;0.40;0.40;;;;;;;;;;7334769;19;162371;-16
2021/10/22 22:31:59;;;;;;;0.80;0.30;;;;;;;;;;7333829;19;153962;-15
2021/10/22 22:34:30;;;;;;;0.30;0.30;;;;;;;;;;7334287;19;153606;-23
2021/10/22 22:37:02;;;;;;;0.20;0.20;;;;;;;;;;7333455;19;161937;-15
2021/10/22 22:39:33;;;;;;;0.30;0.30;;;;;;;;;;7335097;19;162354;-14
2021/10/22 22:42:07;;;;;;;0.25;0.25;;;;;;;;;;7334348;19;153999;-14